6MI0 weather

King Trout Airport
Grayling, Michigan, United States

Public forecast

Using degrees Fahrenheit for public forecast. Weather courtesy of forecast.io.

METAR (pilot weather report)

Closest report is Grayling Army Air Field, 10.3 nm (19.1 km) ENE. Retrieved 2019/06/16 07:58 UTC (1 hour ago):

KGOV 160758Z AUTO 00000KT M M CLR 03/03 A2987 RMK AO2 SLP124 T00330032 PWINO $

TAF (pilot weather forecast)

Closest forecast is Cherry Capital Airport, 28.0 nm (51.8 km) WNW. Retrieved 2019/06/16 06:22 UTC (3 hours ago):

TAF KTVC 160520Z 1606/1706 04005KT P6SM FEW200 FM160800 VRB04KT P6SM SCT100 FM161000 VRB04KT P6SM BKN100 FM161500 04005KT P6SM BKN080 FM170100 VRB03KT P6SM BKN100 FM170400 00000KT P6SM SCT100